sensor_id;sensor_type;location;lat;lon;timestamp;P1;durP1;ratioP1;P2;durP2;ratioP2
21503;SDS011;10913;51.992;9.228;2023-07-28T00:02:04;4.05;;;3.70;;
21503;SDS011;10913;51.992;9.228;2023-07-28T00:04:30;3.90;;;3.60;;
21503;SDS011;10913;51.992;9.228;2023-07-28T00:06:55;3.33;;;3.13;;
21503;SDS011;10913;51.992;9.228;2023-07-28T00:09:20;3.72;;;3.42;;
21503;SDS011;10913;51.992;9.228;2023-07-28T00:11:47;3.90;;;3.60;;
21503;SDS011;10913;51.992;9.228;2023-07-28T00:14:13;3.45;;;3.20;;
21503;SDS011;10913;51.992;9.228;2023-07-28T00:16:38;3.17;;;2.97;;
21503;SDS011;10913;51.992;9.228;2023-07-28T00:19:03;3.88;;;3.20;;
21503;SDS011;10913;51.992;9.228;2023-07-28T00:21:29;3.95;;;3.60;;
21503;SDS011;10913;51.992;9.228;2023-07-28T00:23:54;3.50;;;3.30;;
21503;SDS011;10913;51.992;9.228;2023-07-28T00:26:19;4.18;;;3.65;;
21503;SDS011;10913;51.992;9.228;2023-07-28T00:28:45;4.18;;;3.55;;
21503;SDS011;10913;51.992;9.228;2023-07-28T00:31:10;4.00;;;3.60;;
21503;SDS011;10913;51.992;9.228;2023-07-28T00:33:36;3.50;;;3.30;;
21503;SDS011;10913;51.992;9.228;2023-07-28T00:36:02;4.38;;;3.97;;
21503;SDS011;10913;51.992;9.228;2023-07-28T00:38:28;5.43;;;3.80;;
21503;SDS011;10913;51.992;9.228;2023-07-28T00:40:53;3.92;;;3.53;;
21503;SDS011;10913;51.992;9.228;2023-07-28T00:43:18;3.63;;;3.33;;
21503;SDS011;10913;51.992;9.228;2023-07-28T00:45:44;3.83;;;3.50;;
21503;SDS011;10913;51.992;9.228;2023-07-28T00:48:11;4.00;;;3.70;;
21503;SDS011;10913;51.992;9.228;2023-07-28T00:50:39;3.58;;;3.28;;
21503;SDS011;10913;51.992;9.228;2023-07-28T00:53:09;3.50;;;3.20;;
21503;SDS011;10913;51.992;9.228;2023-07-28T00:55:35;3.20;;;2.90;;
21503;SDS011;10913;51.992;9.228;2023-07-28T00:58:00;3.38;;;2.80;;
21503;SDS011;10913;51.992;9.228;2023-07-28T01:00:25;3.20;;;2.90;;
21503;SDS011;10913;51.992;9.228;2023-07-28T01:02:51;2.83;;;2.60;;
21503;SDS011;10913;51.992;9.228;2023-07-28T01:05:16;3.25;;;2.40;;
21503;SDS011;10913;51.992;9.228;2023-07-28T01:07:53;2.50;;;2.30;;
21503;SDS011;10913;51.992;9.228;2023-07-28T01:10:30;2.33;;;2.05;;
21503;SDS011;10913;51.992;9.228;2023-07-28T01:12:59;2.20;;;2.00;;
21503;SDS011;10913;51.992;9.228;2023-07-28T01:15:24;1.88;;;1.77;;
21503;SDS011;10913;51.992;9.228;2023-07-28T01:17:50;1.90;;;1.80;;
21503;SDS011;10913;51.992;9.228;2023-07-28T01:20:16;1.80;;;1.70;;
21503;SDS011;10913;51.992;9.228;2023-07-28T01:28:10;1.70;;;1.50;;
21503;SDS011;10913;51.992;9.228;2023-07-28T01:30:37;2.00;;;1.35;;
21503;SDS011;10913;51.992;9.228;2023-07-28T01:33:06;1.65;;;1.50;;
21503;SDS011;10913;51.992;9.228;2023-07-28T01:35:32;2.22;;;1.70;;
21503;SDS011;10913;51.992;9.228;2023-07-28T01:37:57;1.70;;;1.60;;
21503;SDS011;10913;51.992;9.228;2023-07-28T01:40:23;1.67;;;1.58;;
21503;SDS011;10913;51.992;9.228;2023-07-28T01:42:48;1.73;;;1.63;;
21503;SDS011;10913;51.992;9.228;2023-07-28T01:45:13;2.70;;;2.10;;
21503;SDS011;10913;51.992;9.228;2023-07-28T01:47:39;2.45;;;2.25;;
21503;SDS011;10913;51.992;9.228;2023-07-28T01:50:04;2.53;;;2.20;;
21503;SDS011;10913;51.992;9.228;2023-07-28T01:52:30;2.60;;;2.40;;
21503;SDS011;10913;51.992;9.228;2023-07-28T01:54:55;2.30;;;2.20;;
21503;SDS011;10913;51.992;9.228;2023-07-28T01:57:21;2.60;;;2.40;;
21503;SDS011;10913;51.992;9.228;2023-07-28T01:59:47;2.97;;;2.78;;
21503;SDS011;10913;51.992;9.228;2023-07-28T02:02:12;3.10;;;2.78;;
21503;SDS011;10913;51.992;9.228;2023-07-28T02:04:37;3.10;;;2.80;;
21503;SDS011;10913;51.992;9.228;2023-07-28T02:07:03;2.72;;;2.53;;
21503;SDS011;10913;51.992;9.228;2023-07-28T02:09:28;3.10;;;2.90;;
21503;SDS011;10913;51.992;9.228;2023-07-28T02:11:53;3.28;;;3.08;;
21503;SDS011;10913;51.992;9.228;2023-07-28T02:14:19;2.85;;;2.65;;
21503;SDS011;10913;51.992;9.228;2023-07-28T02:16:44;3.42;;;3.08;;
21503;SDS011;10913;51.992;9.228;2023-07-28T02:19:10;3.00;;;2.80;;
21503;SDS011;10913;51.992;9.228;2023-07-28T02:21:35;3.17;;;2.88;;
21503;SDS011;10913;51.992;9.228;2023-07-28T02:24:01;3.15;;;2.70;;
21503;SDS011;10913;51.992;9.228;2023-07-28T02:26:26;3.08;;;2.50;;
21503;SDS011;10913;51.992;9.228;2023-07-28T02:28:51;2.83;;;2.60;;
21503;SDS011;10913;51.992;9.228;2023-07-28T02:31:17;3.33;;;2.70;;
21503;SDS011;10913;51.992;9.228;2023-07-28T02:33:42;2.80;;;2.58;;
21503;SDS011;10913;51.992;9.228;2023-07-28T02:36:07;2.70;;;2.50;;
21503;SDS011;10913;51.992;9.228;2023-07-28T02:38:33;2.35;;;2.22;;
21503;SDS011;10913;51.992;9.228;2023-07-28T02:40:58;2.28;;;2.15;;
21503;SDS011;10913;51.992;9.228;2023-07-28T02:43:24;2.22;;;2.10;;
21503;SDS011;10913;51.992;9.228;2023-07-28T02:45:56;2.22;;;2.08;;
21503;SDS011;10913;51.992;9.228;2023-07-28T02:48:22;1.88;;;1.70;;
21503;SDS011;10913;51.992;9.228;2023-07-28T02:50:48;1.60;;;1.50;;
21503;SDS011;10913;51.992;9.228;2023-07-28T02:53:15;1.73;;;1.50;;
21503;SDS011;10913;51.992;9.228;2023-07-28T02:55:41;1.50;;;1.35;;
21503;SDS011;10913;51.992;9.228;2023-07-28T02:58:10;2.95;;;1.55;;
21503;SDS011;10913;51.992;9.228;2023-07-28T03:00:42;1.50;;;1.40;;
21503;SDS011;10913;51.992;9.228;2023-07-28T03:03:09;3.20;;;1.70;;
21503;SDS011;10913;51.992;9.228;2023-07-28T03:05:38;1.55;;;1.45;;
21503;SDS011;10913;51.992;9.228;2023-07-28T03:08:05;1.75;;;1.65;;
21503;SDS011;10913;51.992;9.228;2023-07-28T03:10:31;1.40;;;1.30;;
21503;SDS011;10913;51.992;9.228;2023-07-28T03:12:56;1.98;;;1.88;;
21503;SDS011;10913;51.992;9.228;2023-07-28T03:15:22;2.50;;;1.90;;
21503;SDS011;10913;51.992;9.228;2023-07-28T03:17:48;2.75;;;2.00;;
21503;SDS011;10913;51.992;9.228;2023-07-28T03:20:14;2.30;;;2.20;;
21503;SDS011;10913;51.992;9.228;2023-07-28T03:22:40;2.72;;;2.53;;
21503;SDS011;10913;51.992;9.228;2023-07-28T03:25:05;3.25;;;3.05;;
21503;SDS011;10913;51.992;9.228;2023-07-28T03:27:31;4.60;;;3.33;;
21503;SDS011;10913;51.992;9.228;2023-07-28T03:29:56;4.00;;;3.70;;
21503;SDS011;10913;51.992;9.228;2023-07-28T03:32:21;4.70;;;4.30;;
21503;SDS011;10913;51.992;9.228;2023-07-28T03:34:47;5.13;;;4.65;;
21503;SDS011;10913;51.992;9.228;2023-07-28T03:37:12;5.15;;;4.35;;
21503;SDS011;10913;51.992;9.228;2023-07-28T03:39:37;5.28;;;4.88;;
21503;SDS011;10913;51.992;9.228;2023-07-28T03:42:03;5.60;;;5.10;;
21503;SDS011;10913;51.992;9.228;2023-07-28T03:44:28;5.07;;;4.63;;
21503;SDS011;10913;51.992;9.228;2023-07-28T03:46:54;6.78;;;6.07;;
21503;SDS011;10913;51.992;9.228;2023-07-28T03:49:19;6.07;;;5.57;;
21503;SDS011;10913;51.992;9.228;2023-07-28T03:51:44;5.80;;;5.30;;
21503;SDS011;10913;51.992;9.228;2023-07-28T03:54:11;6.63;;;6.03;;
21503;SDS011;10913;51.992;9.228;2023-07-28T03:56:36;6.28;;;5.78;;
21503;SDS011;10913;51.992;9.228;2023-07-28T03:59:01;6.55;;;5.95;;
21503;SDS011;10913;51.992;9.228;2023-07-28T04:01:27;7.78;;;7.03;;
21503;SDS011;10913;51.992;9.228;2023-07-28T04:03:52;8.00;;;7.20;;
21503;SDS011;10913;51.992;9.228;2023-07-28T04:06:17;6.80;;;6.22;;
21503;SDS011;10913;51.992;9.228;2023-07-28T04:08:43;8.40;;;7.40;;
21503;SDS011;10913;51.992;9.228;2023-07-28T04:11:08;7.43;;;6.72;;
21503;SDS011;10913;51.992;9.228;2023-07-28T04:13:34;7.40;;;6.80;;
21503;SDS011;10913;51.992;9.228;2023-07-28T04:16:00;7.30;;;6.70;;
21503;SDS011;10913;51.992;9.228;2023-07-28T04:18:25;7.30;;;6.60;;
21503;SDS011;10913;51.992;9.228;2023-07-28T04:20:51;6.70;;;6.10;;
21503;SDS011;10913;51.992;9.228;2023-07-28T04:23:17;6.53;;;6.03;;
21503;SDS011;10913;51.992;9.228;2023-07-28T04:25:42;6.55;;;6.03;;
21503;SDS011;10913;51.992;9.228;2023-07-28T04:28:07;6.80;;;6.30;;
21503;SDS011;10913;51.992;9.228;2023-07-28T04:30:33;6.60;;;6.00;;
21503;SDS011;10913;51.992;9.228;2023-07-28T04:32:59;6.32;;;5.80;;
21503;SDS011;10913;51.992;9.228;2023-07-28T04:35:24;6.18;;;5.68;;
21503;SDS011;10913;51.992;9.228;2023-07-28T04:37:49;5.57;;;5.18;;
21503;SDS011;10913;51.992;9.228;2023-07-28T04:40:15;5.80;;;5.30;;
21503;SDS011;10913;51.992;9.228;2023-07-28T04:42:40;5.65;;;5.15;;
21503;SDS011;10913;51.992;9.228;2023-07-28T04:45:06;5.18;;;4.78;;
21503;SDS011;10913;51.992;9.228;2023-07-28T04:47:32;5.05;;;4.65;;
21503;SDS011;10913;51.992;9.228;2023-07-28T04:49:57;4.80;;;4.50;;
21503;SDS011;10913;51.992;9.228;2023-07-28T04:52:23;4.38;;;3.90;;
21503;SDS011;10913;51.992;9.228;2023-07-28T04:54:48;4.30;;;3.90;;
21503;SDS011;10913;51.992;9.228;2023-07-28T04:57:14;4.30;;;4.00;;
21503;SDS011;10913;51.992;9.228;2023-07-28T04:59:39;4.50;;;4.10;;
21503;SDS011;10913;51.992;9.228;2023-07-28T05:02:04;4.05;;;3.75;;
21503;SDS011;10913;51.992;9.228;2023-07-28T05:04:31;4.70;;;4.03;;
21503;SDS011;10913;51.992;9.228;2023-07-28T05:06:56;4.35;;;3.97;;
21503;SDS011;10913;51.992;9.228;2023-07-28T05:09:21;4.45;;;4.10;;
21503;SDS011;10913;51.992;9.228;2023-07-28T05:11:47;4.70;;;4.30;;
21503;SDS011;10913;51.992;9.228;2023-07-28T05:14:12;4.40;;;4.00;;
21503;SDS011;10913;51.992;9.228;2023-07-28T05:16:37;4.68;;;4.28;;
21503;SDS011;10913;51.992;9.228;2023-07-28T05:19:06;4.38;;;4.07;;
21503;SDS011;10913;51.992;9.228;2023-07-28T05:21:34;4.95;;;4.55;;
21503;SDS011;10913;51.992;9.228;2023-07-28T05:24:00;4.57;;;4.25;;
21503;SDS011;10913;51.992;9.228;2023-07-28T05:26:25;4.97;;;4.57;;
21503;SDS011;10913;51.992;9.228;2023-07-28T05:28:50;5.10;;;4.70;;
21503;SDS011;10913;51.992;9.228;2023-07-28T05:31:16;6.10;;;5.60;;
21503;SDS011;10913;51.992;9.228;2023-07-28T05:33:41;5.30;;;4.90;;
21503;SDS011;10913;51.992;9.228;2023-07-28T05:36:06;5.07;;;4.65;;
21503;SDS011;10913;51.992;9.228;2023-07-28T05:38:32;6.07;;;5.57;;
21503;SDS011;10913;51.992;9.228;2023-07-28T05:41:01;6.43;;;5.75;;
21503;SDS011;10913;51.992;9.228;2023-07-28T05:43:28;5.85;;;5.45;;
21503;SDS011;10913;51.992;9.228;2023-07-28T05:45:54;5.90;;;5.43;;
21503;SDS011;10913;51.992;9.228;2023-07-28T05:48:21;6.45;;;5.95;;
21503;SDS011;10913;51.992;9.228;2023-07-28T05:50:46;5.93;;;5.43;;
21503;SDS011;10913;51.992;9.228;2023-07-28T05:53:12;6.80;;;6.20;;
21503;SDS011;10913;51.992;9.228;2023-07-28T05:55:38;6.35;;;5.85;;
21503;SDS011;10913;51.992;9.228;2023-07-28T05:58:04;6.47;;;5.88;;
21503;SDS011;10913;51.992;9.228;2023-07-28T06:00:30;6.00;;;5.50;;
21503;SDS011;10913;51.992;9.228;2023-07-28T06:02:56;6.45;;;5.95;;
21503;SDS011;10913;51.992;9.228;2023-07-28T06:05:22;6.25;;;5.78;;
21503;SDS011;10913;51.992;9.228;2023-07-28T06:07:47;6.43;;;5.82;;
21503;SDS011;10913;51.992;9.228;2023-07-28T06:10:12;5.70;;;5.30;;
21503;SDS011;10913;51.992;9.228;2023-07-28T06:12:38;6.00;;;5.40;;
21503;SDS011;10913;51.992;9.228;2023-07-28T06:15:03;6.03;;;5.53;;
21503;SDS011;10913;51.992;9.228;2023-07-28T06:17:29;6.38;;;5.88;;
21503;SDS011;10913;51.992;9.228;2023-07-28T06:19:54;7.00;;;6.50;;
21503;SDS011;10913;51.992;9.228;2023-07-28T06:22:20;6.65;;;5.90;;
21503;SDS011;10913;51.992;9.228;2023-07-28T06:24:45;6.95;;;6.45;;
21503;SDS011;10913;51.992;9.228;2023-07-28T06:27:10;6.25;;;5.65;;
21503;SDS011;10913;51.992;9.228;2023-07-28T06:29:36;6.88;;;6.28;;
21503;SDS011;10913;51.992;9.228;2023-07-28T06:32:01;6.53;;;6.03;;
21503;SDS011;10913;51.992;9.228;2023-07-28T06:34:27;7.30;;;6.70;;
21503;SDS011;10913;51.992;9.228;2023-07-28T06:36:53;7.20;;;6.60;;
21503;SDS011;10913;51.992;9.228;2023-07-28T06:39:18;7.18;;;6.65;;
21503;SDS011;10913;51.992;9.228;2023-07-28T06:41:44;6.95;;;6.35;;
21503;SDS011;10913;51.992;9.228;2023-07-28T06:44:09;7.25;;;6.65;;
21503;SDS011;10913;51.992;9.228;2023-07-28T06:46:34;6.68;;;6.07;;
21503;SDS011;10913;51.992;9.228;2023-07-28T06:49:00;6.63;;;6.03;;
21503;SDS011;10913;51.992;9.228;2023-07-28T06:51:25;6.25;;;5.75;;
21503;SDS011;10913;51.992;9.228;2023-07-28T06:53:51;6.70;;;6.10;;
21503;SDS011;10913;51.992;9.228;2023-07-28T06:56:16;5.80;;;5.40;;
21503;SDS011;10913;51.992;9.228;2023-07-28T06:58:42;6.38;;;5.88;;
21503;SDS011;10913;51.992;9.228;2023-07-28T07:01:07;6.40;;;5.90;;
21503;SDS011;10913;51.992;9.228;2023-07-28T07:03:38;6.13;;;5.63;;
21503;SDS011;10913;51.992;9.228;2023-07-28T07:06:04;6.55;;;6.05;;
21503;SDS011;10913;51.992;9.228;2023-07-28T07:08:29;5.85;;;5.38;;
21503;SDS011;10913;51.992;9.228;2023-07-28T07:16:05;5.93;;;5.43;;
21503;SDS011;10913;51.992;9.228;2023-07-28T07:18:31;6.57;;;6.03;;
21503;SDS011;10913;51.992;9.228;2023-07-28T07:21:02;6.20;;;5.70;;
21503;SDS011;10913;51.992;9.228;2023-07-28T07:23:31;6.30;;;5.82;;
21503;SDS011;10913;51.992;9.228;2023-07-28T07:25:56;6.47;;;5.97;;
21503;SDS011;10913;51.992;9.228;2023-07-28T07:28:22;6.35;;;5.85;;
21503;SDS011;10913;51.992;9.228;2023-07-28T07:30:47;6.07;;;5.60;;
21503;SDS011;10913;51.992;9.228;2023-07-28T07:33:16;7.28;;;6.68;;
21503;SDS011;10913;51.992;9.228;2023-07-28T07:35:42;7.25;;;6.68;;
21503;SDS011;10913;51.992;9.228;2023-07-28T07:38:07;6.85;;;6.25;;
21503;SDS011;10913;51.992;9.228;2023-07-28T07:40:37;7.20;;;6.60;;
21503;SDS011;10913;51.992;9.228;2023-07-28T07:43:04;7.35;;;6.75;;
21503;SDS011;10913;51.992;9.228;2023-07-28T07:45:30;6.95;;;6.40;;
21503;SDS011;10913;51.992;9.228;2023-07-28T07:47:55;7.88;;;7.18;;
21503;SDS011;10913;51.992;9.228;2023-07-28T07:50:21;7.45;;;6.85;;
21503;SDS011;10913;51.992;9.228;2023-07-28T07:52:47;7.45;;;6.80;;
21503;SDS011;10913;51.992;9.228;2023-07-28T07:55:13;7.85;;;7.18;;
21503;SDS011;10913;51.992;9.228;2023-07-28T07:57:38;7.72;;;7.03;;
21503;SDS011;10913;51.992;9.228;2023-07-28T08:05:08;8.20;;;7.60;;
21503;SDS011;10913;51.992;9.228;2023-07-28T08:07:34;8.27;;;7.57;;
21503;SDS011;10913;51.992;9.228;2023-07-28T08:10:01;9.63;;;8.80;;
21503;SDS011;10913;51.992;9.228;2023-07-28T08:12:27;10.30;;;9.40;;
21503;SDS011;10913;51.992;9.228;2023-07-28T08:14:52;12.00;;;10.82;;
21503;SDS011;10913;51.992;9.228;2023-07-28T08:17:18;10.88;;;9.95;;
21503;SDS011;10913;51.992;9.228;2023-07-28T08:19:44;10.80;;;9.90;;
21503;SDS011;10913;51.992;9.228;2023-07-28T08:22:09;11.82;;;10.73;;
21503;SDS011;10913;51.992;9.228;2023-07-28T08:24:35;12.43;;;11.32;;
21503;SDS011;10913;51.992;9.228;2023-07-28T08:27:00;13.43;;;12.23;;
21503;SDS011;10913;51.992;9.228;2023-07-28T08:29:26;13.73;;;12.52;;
21503;SDS011;10913;51.992;9.228;2023-07-28T08:31:51;12.68;;;11.38;;
21503;SDS011;10913;51.992;9.228;2023-07-28T08:34:16;13.02;;;11.80;;
21503;SDS011;10913;51.992;9.228;2023-07-28T08:36:42;13.80;;;12.55;;
21503;SDS011;10913;51.992;9.228;2023-07-28T08:39:08;14.13;;;12.73;;
21503;SDS011;10913;51.992;9.228;2023-07-28T08:41:34;13.13;;;11.95;;
21503;SDS011;10913;51.992;9.228;2023-07-28T08:44:00;15.50;;;13.90;;
21503;SDS011;10913;51.992;9.228;2023-07-28T08:46:25;11.70;;;10.70;;
21503;SDS011;10913;51.992;9.228;2023-07-28T08:48:51;12.40;;;11.20;;
21503;SDS011;10913;51.992;9.228;2023-07-28T08:51:16;12.60;;;11.50;;
21503;SDS011;10913;51.992;9.228;2023-07-28T08:53:42;11.52;;;10.35;;
21503;SDS011;10913;51.992;9.228;2023-07-28T08:56:08;10.68;;;9.77;;
21503;SDS011;10913;51.992;9.228;2023-07-28T08:58:33;10.13;;;9.25;;
21503;SDS011;10913;51.992;9.228;2023-07-28T09:00:59;11.10;;;10.10;;
21503;SDS011;10913;51.992;9.228;2023-07-28T09:03:28;10.73;;;9.75;;
21503;SDS011;10913;51.992;9.228;2023-07-28T09:06:00;10.50;;;9.50;;
21503;SDS011;10913;51.992;9.228;2023-07-28T09:08:26;9.45;;;8.65;;
21503;SDS011;10913;51.992;9.228;2023-07-28T09:10:52;9.20;;;8.40;;
21503;SDS011;10913;51.992;9.228;2023-07-28T09:13:19;9.57;;;8.68;;
21503;SDS011;10913;51.992;9.228;2023-07-28T09:15:45;9.38;;;8.57;;
21503;SDS011;10913;51.992;9.228;2023-07-28T09:18:12;8.75;;;8.05;;
21503;SDS011;10913;51.992;9.228;2023-07-28T09:20:39;9.60;;;8.82;;
21503;SDS011;10913;51.992;9.228;2023-07-28T09:23:12;9.00;;;8.30;;
21503;SDS011;10913;51.992;9.228;2023-07-28T09:25:39;9.18;;;8.38;;
21503;SDS011;10913;51.992;9.228;2023-07-28T09:28:04;8.10;;;7.50;;
21503;SDS011;10913;51.992;9.228;2023-07-28T09:30:49;8.10;;;7.40;;
21503;SDS011;10913;51.992;9.228;2023-07-28T09:33:31;7.93;;;7.32;;
21503;SDS011;10913;51.992;9.228;2023-07-28T09:35:57;7.40;;;6.80;;
21503;SDS011;10913;51.992;9.228;2023-07-28T09:38:32;7.95;;;7.30;;
21503;SDS011;10913;51.992;9.228;2023-07-28T09:41:02;7.72;;;7.13;;
21503;SDS011;10913;51.992;9.228;2023-07-28T09:43:32;7.53;;;6.90;;
21503;SDS011;10913;51.992;9.228;2023-07-28T09:45:58;7.70;;;7.10;;
21503;SDS011;10913;51.992;9.228;2023-07-28T09:48:24;8.32;;;7.63;;
21503;SDS011;10913;51.992;9.228;2023-07-28T09:50:49;8.07;;;7.45;;
21503;SDS011;10913;51.992;9.228;2023-07-28T09:53:18;7.47;;;6.88;;
21503;SDS011;10913;51.992;9.228;2023-07-28T09:55:46;6.65;;;6.03;;
21503;SDS011;10913;51.992;9.228;2023-07-28T09:58:15;7.00;;;6.47;;
21503;SDS011;10913;51.992;9.228;2023-07-28T10:00:42;6.20;;;5.70;;
21503;SDS011;10913;51.992;9.228;2023-07-28T10:03:09;6.50;;;6.00;;
21503;SDS011;10913;51.992;9.228;2023-07-28T10:05:35;6.45;;;5.95;;
21503;SDS011;10913;51.992;9.228;2023-07-28T10:08:02;5.65;;;5.20;;
21503;SDS011;10913;51.992;9.228;2023-07-28T10:10:28;6.93;;;6.25;;
21503;SDS011;10913;51.992;9.228;2023-07-28T10:12:54;6.10;;;5.68;;
21503;SDS011;10913;51.992;9.228;2023-07-28T10:15:27;6.47;;;5.90;;
21503;SDS011;10913;51.992;9.228;2023-07-28T10:17:55;6.45;;;5.95;;
21503;SDS011;10913;51.992;9.228;2023-07-28T10:23:03;6.53;;;6.03;;
21503;SDS011;10913;51.992;9.228;2023-07-28T10:25:47;6.07;;;5.50;;
21503;SDS011;10913;51.992;9.228;2023-07-28T10:28:29;5.72;;;5.25;;
21503;SDS011;10913;51.992;9.228;2023-07-28T10:30:56;6.47;;;5.90;;
21503;SDS011;10913;51.992;9.228;2023-07-28T10:33:26;6.03;;;5.53;;
21503;SDS011;10913;51.992;9.228;2023-07-28T10:35:57;5.85;;;5.45;;
21503;SDS011;10913;51.992;9.228;2023-07-28T10:38:33;5.75;;;5.32;;
21503;SDS011;10913;51.992;9.228;2023-07-28T10:41:11;5.80;;;5.30;;
21503;SDS011;10913;51.992;9.228;2023-07-28T10:43:41;5.05;;;4.65;;
21503;SDS011;10913;51.992;9.228;2023-07-28T10:46:07;5.30;;;4.90;;
21503;SDS011;10913;51.992;9.228;2023-07-28T10:48:34;5.50;;;5.00;;
21503;SDS011;10913;51.992;9.228;2023-07-28T10:51:00;5.72;;;5.28;;
21503;SDS011;10913;51.992;9.228;2023-07-28T10:53:26;5.97;;;5.47;;
21503;SDS011;10913;51.992;9.228;2023-07-28T10:55:52;6.85;;;6.32;;
21503;SDS011;10913;51.992;9.228;2023-07-28T10:58:18;6.25;;;5.75;;
21503;SDS011;10913;51.992;9.228;2023-07-28T11:00:45;6.53;;;5.80;;
21503;SDS011;10913;51.992;9.228;2023-07-28T11:03:10;6.70;;;6.10;;
21503;SDS011;10913;51.992;9.228;2023-07-28T11:05:37;6.50;;;6.00;;
21503;SDS011;10913;51.992;9.228;2023-07-28T11:08:05;6.80;;;6.30;;
21503;SDS011;10913;51.992;9.228;2023-07-28T11:10:32;7.30;;;6.70;;
21503;SDS011;10913;51.992;9.228;2023-07-28T11:12:59;6.97;;;6.25;;
21503;SDS011;10913;51.992;9.228;2023-07-28T11:15:26;7.57;;;6.88;;
21503;SDS011;10913;51.992;9.228;2023-07-28T11:17:52;7.43;;;6.82;;
21503;SDS011;10913;51.992;9.228;2023-07-28T11:22:45;8.00;;;7.20;;
21503;SDS011;10913;51.992;9.228;2023-07-28T11:25:12;7.00;;;6.47;;
21503;SDS011;10913;51.992;9.228;2023-07-28T11:27:40;8.25;;;7.47;;
21503;SDS011;10913;51.992;9.228;2023-07-28T11:30:08;7.65;;;7.05;;
21503;SDS011;10913;51.992;9.228;2023-07-28T11:32:37;6.32;;;5.82;;
21503;SDS011;10913;51.992;9.228;2023-07-28T11:35:04;5.40;;;5.00;;
21503;SDS011;10913;51.992;9.228;2023-07-28T11:37:30;6.10;;;5.55;;
21503;SDS011;10913;51.992;9.228;2023-07-28T11:39:58;6.50;;;6.00;;
21503;SDS011;10913;51.992;9.228;2023-07-28T11:42:25;6.75;;;6.25;;
21503;SDS011;10913;51.992;9.228;2023-07-28T11:44:52;6.43;;;5.93;;
21503;SDS011;10913;51.992;9.228;2023-07-28T11:47:17;8.25;;;6.13;;
21503;SDS011;10913;51.992;9.228;2023-07-28T11:49:48;6.43;;;5.93;;
21503;SDS011;10913;51.992;9.228;2023-07-28T11:52:16;6.75;;;6.25;;
21503;SDS011;10913;51.992;9.228;2023-07-28T11:54:41;6.38;;;5.88;;
21503;SDS011;10913;51.992;9.228;2023-07-28T11:57:08;6.65;;;6.05;;
21503;SDS011;10913;51.992;9.228;2023-07-28T11:59:34;6.45;;;5.95;;
21503;SDS011;10913;51.992;9.228;2023-07-28T12:02:00;6.63;;;6.03;;
21503;SDS011;10913;51.992;9.228;2023-07-28T12:04:31;6.65;;;6.10;;
21503;SDS011;10913;51.992;9.228;2023-07-28T12:09:28;7.78;;;7.07;;
21503;SDS011;10913;51.992;9.228;2023-07-28T12:11:54;7.07;;;6.53;;
21503;SDS011;10913;51.992;9.228;2023-07-28T12:14:32;6.93;;;6.30;;
21503;SDS011;10913;51.992;9.228;2023-07-28T12:16:58;8.18;;;7.47;;
21503;SDS011;10913;51.992;9.228;2023-07-28T12:19:24;9.10;;;8.30;;
21503;SDS011;10913;51.992;9.228;2023-07-28T12:21:50;9.35;;;8.55;;
21503;SDS011;10913;51.992;9.228;2023-07-28T12:24:15;8.93;;;8.13;;
21503;SDS011;10913;51.992;9.228;2023-07-28T12:26:40;8.35;;;7.65;;
21503;SDS011;10913;51.992;9.228;2023-07-28T12:29:06;8.23;;;7.53;;
21503;SDS011;10913;51.992;9.228;2023-07-28T12:31:31;9.32;;;8.43;;
21503;SDS011;10913;51.992;9.228;2023-07-28T12:33:58;9.52;;;8.73;;
21503;SDS011;10913;51.992;9.228;2023-07-28T12:36:23;10.50;;;9.50;;
21503;SDS011;10913;51.992;9.228;2023-07-28T12:38:48;10.55;;;9.57;;
21503;SDS011;10913;51.992;9.228;2023-07-28T12:41:14;11.27;;;10.27;;
21503;SDS011;10913;51.992;9.228;2023-07-28T12:43:39;12.00;;;10.90;;
21503;SDS011;10913;51.992;9.228;2023-07-28T12:46:05;12.57;;;11.38;;
21503;SDS011;10913;51.992;9.228;2023-07-28T12:48:30;12.55;;;11.35;;
21503;SDS011;10913;51.992;9.228;2023-07-28T12:50:55;11.70;;;10.57;;
21503;SDS011;10913;51.992;9.228;2023-07-28T12:53:21;11.43;;;10.43;;
21503;SDS011;10913;51.992;9.228;2023-07-28T12:55:46;11.90;;;10.75;;
21503;SDS011;10913;51.992;9.228;2023-07-28T12:58:11;12.55;;;11.35;;
21503;SDS011;10913;51.992;9.228;2023-07-28T13:00:37;12.00;;;10.90;;
21503;SDS011;10913;51.992;9.228;2023-07-28T13:03:06;12.52;;;11.32;;
21503;SDS011;10913;51.992;9.228;2023-07-28T13:05:31;13.07;;;11.88;;
21503;SDS011;10913;51.992;9.228;2023-07-28T13:07:57;13.00;;;11.80;;
21503;SDS011;10913;51.992;9.228;2023-07-28T13:10:22;13.85;;;12.55;;
21503;SDS011;10913;51.992;9.228;2023-07-28T13:12:48;13.35;;;12.05;;
21503;SDS011;10913;51.992;9.228;2023-07-28T13:15:13;11.57;;;10.57;;
21503;SDS011;10913;51.992;9.228;2023-07-28T13:17:38;10.85;;;9.95;;
21503;SDS011;10913;51.992;9.228;2023-07-28T13:20:04;11.95;;;10.75;;
21503;SDS011;10913;51.992;9.228;2023-07-28T13:22:31;11.50;;;10.50;;
21503;SDS011;10913;51.992;9.228;2023-07-28T13:24:57;12.52;;;11.43;;
21503;SDS011;10913;51.992;9.228;2023-07-28T13:27:22;12.25;;;11.20;;
21503;SDS011;10913;51.992;9.228;2023-07-28T13:29:48;12.45;;;11.43;;
21503;SDS011;10913;51.992;9.228;2023-07-28T13:32:23;12.38;;;11.27;;
21503;SDS011;10913;51.992;9.228;2023-07-28T13:34:49;12.57;;;11.45;;
21503;SDS011;10913;51.992;9.228;2023-07-28T13:37:15;10.77;;;9.85;;
21503;SDS011;10913;51.992;9.228;2023-07-28T13:39:41;11.20;;;10.20;;
21503;SDS011;10913;51.992;9.228;2023-07-28T13:42:07;12.02;;;11.02;;
21503;SDS011;10913;51.992;9.228;2023-07-28T13:44:33;11.85;;;10.82;;
21503;SDS011;10913;51.992;9.228;2023-07-28T13:47:01;12.55;;;11.45;;
21503;SDS011;10913;51.992;9.228;2023-07-28T13:49:27;12.48;;;11.38;;
21503;SDS011;10913;51.992;9.228;2023-07-28T13:51:52;12.02;;;11.02;;
21503;SDS011;10913;51.992;9.228;2023-07-28T13:54:18;12.07;;;11.07;;
21503;SDS011;10913;51.992;9.228;2023-07-28T13:56:43;11.70;;;10.70;;
21503;SDS011;10913;51.992;9.228;2023-07-28T13:59:09;10.50;;;9.63;;
21503;SDS011;10913;51.992;9.228;2023-07-28T14:01:34;10.60;;;9.68;;
21503;SDS011;10913;51.992;9.228;2023-07-28T14:03:59;10.43;;;9.52;;
21503;SDS011;10913;51.992;9.228;2023-07-28T14:06:25;9.98;;;9.18;;
21503;SDS011;10913;51.992;9.228;2023-07-28T14:08:50;10.55;;;9.63;;
21503;SDS011;10913;51.992;9.228;2023-07-28T14:11:16;10.18;;;9.38;;
21503;SDS011;10913;51.992;9.228;2023-07-28T14:13:41;10.32;;;9.45;;
21503;SDS011;10913;51.992;9.228;2023-07-28T14:16:07;9.73;;;8.93;;
21503;SDS011;10913;51.992;9.228;2023-07-28T14:18:34;10.18;;;9.38;;
21503;SDS011;10913;51.992;9.228;2023-07-28T14:21:00;9.82;;;9.02;;
21503;SDS011;10913;51.992;9.228;2023-07-28T14:23:26;10.07;;;9.27;;
21503;SDS011;10913;51.992;9.228;2023-07-28T14:25:53;11.68;;;10.55;;
21503;SDS011;10913;51.992;9.228;2023-07-28T14:28:19;10.65;;;9.80;;
21503;SDS011;10913;51.992;9.228;2023-07-28T14:30:45;10.68;;;9.85;;
21503;SDS011;10913;51.992;9.228;2023-07-28T14:33:14;10.88;;;9.98;;
21503;SDS011;10913;51.992;9.228;2023-07-28T14:35:44;9.38;;;8.63;;
21503;SDS011;10913;51.992;9.228;2023-07-28T14:38:11;9.38;;;8.57;;
21503;SDS011;10913;51.992;9.228;2023-07-28T14:40:37;8.98;;;8.18;;
21503;SDS011;10913;51.992;9.228;2023-07-28T14:43:04;9.32;;;8.63;;
21503;SDS011;10913;51.992;9.228;2023-07-28T14:45:30;8.90;;;8.20;;
21503;SDS011;10913;51.992;9.228;2023-07-28T14:47:55;9.68;;;8.88;;
21503;SDS011;10913;51.992;9.228;2023-07-28T14:50:21;9.80;;;8.95;;
21503;SDS011;10913;51.992;9.228;2023-07-28T14:52:47;9.75;;;8.85;;
21503;SDS011;10913;51.992;9.228;2023-07-28T14:55:12;9.55;;;8.75;;
21503;SDS011;10913;51.992;9.228;2023-07-28T14:57:38;9.00;;;8.30;;
21503;SDS011;10913;51.992;9.228;2023-07-28T15:00:03;9.98;;;9.18;;
21503;SDS011;10913;51.992;9.228;2023-07-28T15:02:30;9.90;;;9.10;;